Time;durP1;ratioP1;P1;durP2;ratioP2;P2;SDS_P1;SDS_P2;PMS_P1;PMS_P2;Temp;Humidity;BMP_temperature;BMP_pressure;BME280_temperature;BME280_humidity;BME280_pressure;Samples;Min_cycle;Max_cycle;Signal;HPM_P1;HPM_P2
2022/11/19 00:15:06;;;;;;;42.15;17.65;;;;;;;4.47;100.00;100643.31;5002499;28;20050;-95
2022/11/19 00:17:31;;;;;;;42.03;17.15;;;;;;;4.43;100.00;100636.00;5005055;28;20010;-96
2022/11/19 00:19:57;;;;;;;38.03;16.10;;;;;;;4.42;100.00;100637.84;5009240;28;20022;-96
2022/11/19 00:22:22;;;;;;;35.40;15.38;;;;;;;4.48;100.00;100668.00;5001851;28;20034;-96
2022/11/19 00:24:59;;;;;;;34.50;15.27;;;;;;;4.34;100.00;100649.56;5015462;28;20034;-96
2022/11/19 00:27:25;;;;;;;40.10;16.25;;;;;;;4.29;100.00;100645.97;5015960;28;20032;-96
2022/11/19 00:30:01;;;;;;;36.97;16.05;;;;;;;4.38;100.00;100661.34;5016149;28;20022;-96
2022/11/19 00:32:30;;;;;;;37.23;16.43;;;;;;;4.22;100.00;100651.31;5017736;28;20023;-96
2022/11/19 00:35:02;;;;;;;38.03;15.60;;;;;;;4.30;100.00;100656.34;5019134;28;20011;-96
2022/11/19 02:52:00;;;;;;;20.35;9.63;;;;;;;2.88;100.00;100780.97;5411039;23;20046;-96
2022/11/19 02:54:27;;;;;;;21.23;10.43;;;;;;;2.83;100.00;100772.84;5038442;28;20030;-96
2022/11/19 02:57:24;;;;;;;22.92;11.40;;;;;;;2.83;100.00;100782.63;5162298;23;20057;-96
2022/11/19 03:33:31;;;;;;;22.02;11.27;;;;;;;2.32;100.00;100802.59;5014839;28;20038;-97
2022/11/19 03:36:16;;;;;;;19.15;10.25;;;;;;;2.08;100.00;100770.47;5062519;23;20045;-96
2022/11/19 03:38:48;;;;;;;27.05;13.20;;;;;;;2.29;100.00;100805.66;5020493;28;20041;-96
2022/11/19 03:41:17;;;;;;;26.38;13.18;;;;;;;2.20;100.00;100781.25;5036752;28;20025;-96
2022/11/19 03:47:32;;;;;;;19.17;10.43;;;;;;;2.24;100.00;100800.97;5393205;23;20071;-96
2022/11/19 03:52:53;;;;;;;28.27;12.65;;;;;;;2.03;100.00;100773.72;5170636;23;20046;-96
2022/11/19 03:55:23;;;;;;;27.60;14.40;;;;;;;2.11;100.00;100801.78;5030934;28;20029;-95
2022/11/19 05:57:31;;;;;;;39.60;18.43;;;;;;;1.31;100.00;100900.88;5054096;23;20318;-92
2022/11/19 05:59:57;;;;;;;36.17;17.63;;;;;;;1.33;100.00;100905.97;5025062;28;20120;-94
2022/11/19 06:02:22;;;;;;;40.10;19.60;;;;;;;1.31;100.00;100911.44;5025195;28;20029;-95
2022/11/19 06:04:47;;;;;;;38.83;19.13;;;;;;;1.32;100.00;100918.34;5024655;28;20448;-94
2022/11/19 06:07:12;;;;;;;38.50;17.83;;;;;;;1.37;100.00;100923.03;5022263;28;20025;-94
2022/11/19 06:09:38;;;;;;;44.27;19.97;;;;;;;1.43;100.00;100932.03;5023463;28;20018;-91
2022/11/19 06:12:04;;;;;;;42.90;20.20;;;;;;;1.38;100.00;100934.44;5020531;28;20085;-93
2022/11/19 06:14:29;;;;;;;40.03;19.42;;;;;;;1.36;100.00;100932.81;5024439;28;20042;-95
2022/11/19 06:16:57;;;;;;;45.07;20.70;;;;;;;1.40;100.00;100929.78;5019312;28;20056;-94
2022/11/19 06:19:23;;;;;;;41.30;19.42;;;;;;;1.43;100.00;100932.03;5021396;28;20046;-96
2022/11/19 06:21:49;;;;;;;42.95;19.50;;;;;;;1.41;100.00;100939.34;5021566;28;20093;-92
2022/11/19 06:24:15;;;;;;;46.00;21.00;;;;;;;1.41;100.00;100952.53;5022689;28;20065;-93
2022/11/19 06:26:41;;;;;;;43.17;20.53;;;;;;;1.34;100.00;100955.94;5032557;28;20029;-93
2022/11/19 06:29:07;;;;;;;41.80;19.70;;;;;;;1.37;100.00;100954.72;5019327;28;20269;-94
2022/11/19 06:31:32;;;;;;;45.13;21.55;;;;;;;1.31;100.00;100956.31;5003214;28;20027;-93
2022/11/19 06:33:58;;;;;;;39.20;19.83;;;;;;;1.26;100.00;100968.47;4996879;28;20045;-93
2022/11/19 06:36:23;;;;;;;39.13;18.70;;;;;;;1.13;100.00;100969.19;4999213;28;20025;-93
2022/11/19 06:38:50;;;;;;;49.95;21.60;;;;;;;1.08;100.00;100974.25;5013275;28;20048;-93
2022/11/19 06:41:15;;;;;;;48.22;21.77;;;;;;;1.09;100.00;100970.59;5015374;28;20148;-93
2022/11/19 06:43:42;;;;;;;48.13;21.23;;;;;;;1.12;100.00;100972.84;5014650;28;20105;-93
2022/11/19 06:46:07;;;;;;;47.40;22.57;;;;;;;1.07;100.00;100976.06;5017051;28;20112;-94
2022/11/19 06:48:33;;;;;;;47.72;21.50;;;;;;;1.01;100.00;100967.09;5015676;28;20880;-94
2022/11/19 06:51:00;;;;;;;46.90;21.30;;;;;;;1.02;100.00;100974.00;5016242;28;20033;-94
2022/11/19 06:53:25;;;;;;;48.20;23.40;;;;;;;1.11;100.00;100965.91;5014682;28;20029;-95
2022/11/19 06:56:02;;;;;;;45.67;20.90;;;;;;;1.13;100.00;100964.75;5018052;28;20354;-93
2022/11/19 06:58:28;;;;;;;47.40;20.83;;;;;;;0.95;100.00;100970.47;5012434;28;20152;-92
2022/11/19 07:00:54;;;;;;;49.45;22.38;;;;;;;1.00;100.00;100969.91;5014552;28;20240;-92
2022/11/19 07:03:23;;;;;;;55.58;22.67;;;;;;;1.00;100.00;100977.84;5014856;28;20032;-93
2022/11/19 07:05:54;;;;;;;45.63;19.47;;;;;;;0.96;100.00;100985.31;5017988;28;20021;-94
2022/11/19 07:08:20;;;;;;;51.30;21.67;;;;;;;0.90;100.00;100980.81;5002365;28;20041;-94
2022/11/19 07:14:07;;;;;;;51.20;23.17;;;;;;;0.87;100.00;100975.91;5291625;23;20099;-90
2022/11/19 07:16:35;;;;;;;49.10;21.50;;;;;;;0.92;100.00;100996.44;5015986;28;20471;-91
2022/11/19 07:19:03;;;;;;;56.77;22.47;;;;;;;0.98;100.00;100998.31;5015943;28;20044;-90
2022/11/19 07:21:29;;;;;;;52.47;23.23;;;;;;;0.93;100.00;101001.50;5014359;28;20297;-91
2022/11/19 07:23:56;;;;;;;50.13;21.15;;;;;;;0.87;100.00;100992.53;5013832;28;20034;-91
2022/11/19 07:26:22;;;;;;;48.20;21.25;;;;;;;0.95;100.00;101011.88;5013676;28;20036;-91
2022/11/19 07:28:47;;;;;;;49.13;23.05;;;;;;;0.95;100.00;101003.97;5015066;28;20042;-92
2022/11/19 07:31:12;;;;;;;53.10;23.30;;;;;;;1.07;100.00;101012.19;5015537;28;20124;-93
2022/11/19 07:33:38;;;;;;;43.80;19.80;;;;;;;1.07;100.00;101012.19;5014774;28;20029;-92
2022/11/19 07:36:08;;;;;;;46.42;19.20;;;;;;;1.01;100.00;101019.03;5015528;28;20030;-92
2022/11/19 07:38:35;;;;;;;47.93;20.97;;;;;;;0.94;100.00;101023.44;5016724;28;20022;-89
2022/11/19 07:41:00;;;;;;;53.35;22.23;;;;;;;1.00;100.00;101018.22;5016493;28;20021;-91
2022/11/19 07:43:25;;;;;;;48.97;21.47;;;;;;;1.04;100.00;101024.78;5017480;28;20056;-92
2022/11/19 07:45:56;;;;;;;31.25;15.60;;;;;;;1.03;100.00;101007.28;5056737;23;20032;-96
2022/11/19 07:48:21;;;;;;;47.57;20.47;;;;;;;0.82;100.00;100999.38;5243042;23;20037;-94
2022/11/19 07:51:27;;;;;;;51.58;23.58;;;;;;;0.86;100.00;101019.91;5034811;28;20041;-94
2022/11/19 07:57:15;;;;;;;44.47;18.77;;;;;;;0.89;100.00;101022.19;5093464;23;20316;-94
2022/11/19 08:00:34;;;;;;;50.78;20.35;;;;;;;1.06;100.00;101048.31;5028746;28;20256;-96
2022/11/19 08:03:01;;;;;;;47.37;21.50;;;;;;;0.89;100.00;101019.53;5018009;28;20022;-95
2022/11/19 08:05:27;;;;;;;47.37;19.90;;;;;;;1.15;100.00;101051.66;5026024;28;20304;-96
2022/11/19 08:07:53;;;;;;;50.72;22.08;;;;;;;1.15;100.00;101049.00;5037577;28;20022;-96
2022/11/19 08:10:20;;;;;;;43.28;18.67;;;;;;;1.11;100.00;101037.19;5032794;28;20049;-96
2022/11/19 08:13:01;;;;;;;44.67;18.40;;;;;;;1.02;100.00;101025.94;5031729;28;20030;-94
2022/11/19 08:15:33;;;;;;;42.77;18.90;;;;;;;1.09;100.00;101047.16;5019316;28;20308;-96
2022/11/19 08:18:11;;;;;;;42.42;18.65;;;;;;;1.08;100.00;101058.72;5021713;28;20010;-93
2022/11/19 08:20:38;;;;;;;50.60;20.88;;;;;;;1.07;100.00;101055.22;5037091;28;20041;-96
2022/11/19 08:23:04;;;;;;;50.15;22.17;;;;;;;1.04;100.00;101052.97;5016884;28;20064;-93
2022/11/19 08:25:29;;;;;;;47.27;19.90;;;;;;;0.98;100.00;101046.63;5006396;28;20435;-94
2022/11/19 08:27:54;;;;;;;46.07;19.90;;;;;;;1.12;100.00;101065.22;5015957;28;20022;-93
2022/11/19 08:30:26;;;;;;;48.60;20.90;;;;;;;1.10;100.00;101064.59;5014552;28;20026;-93
2022/11/19 08:32:51;;;;;;;44.47;18.53;;;;;;;1.14;100.00;101060.56;5006343;28;20280;-94
2022/11/19 08:35:16;;;;;;;43.78;19.83;;;;;;;1.11;100.00;101071.50;4995345;28;20030;-93
2022/11/19 08:37:57;;;;;;;43.03;19.00;;;;;;;1.07;100.00;101054.44;5003574;28;20030;-93
2022/11/19 08:40:31;;;;;;;44.67;18.48;;;;;;;1.25;100.00;101075.91;5004519;28;20072;-92
2022/11/19 08:48:12;;;;;;;43.60;19.43;;;;;;;1.18;100.00;101056.56;5150954;23;20324;-93
2022/11/19 08:50:56;;;;;;;42.42;19.75;;;;;;;1.40;100.00;101088.22;5021389;28;20362;-93
2022/11/19 08:53:21;;;;;;;45.83;20.20;;;;;;;1.38;100.00;101088.41;5023259;28;20031;-91
2022/11/19 08:55:50;;;;;;;51.17;20.93;;;;;;;1.44;100.00;101087.66;5019645;28;20040;-92
2022/11/19 08:58:16;;;;;;;41.95;20.25;;;;;;;1.43;100.00;101088.66;5027763;28;20029;-93
2022/11/19 09:00:42;;;;;;;33.70;16.45;;;;;;;1.49;100.00;101084.44;5026675;28;20035;-93
2022/11/19 09:03:07;;;;;;;42.40;20.07;;;;;;;1.50;100.00;101086.06;5026528;28;20026;-89
2022/11/19 09:05:33;;;;;;;44.47;18.90;;;;;;;1.50;100.00;101084.25;5017579;28;20676;-89
2022/11/19 09:07:59;;;;;;;42.22;19.77;;;;;;;1.47;100.00;101097.00;5027160;28;20022;-89
2022/11/19 09:10:30;;;;;;;37.00;17.40;;;;;;;1.47;100.00;101089.91;5030277;28;20003;-88
2022/11/19 09:12:55;;;;;;;40.90;18.67;;;;;;;1.47;100.00;101092.56;5015333;28;20030;-88
2022/11/19 09:15:21;;;;;;;41.63;18.60;;;;;;;1.42;100.00;101089.66;5029553;28;20012;-88
2022/11/19 09:17:47;;;;;;;39.45;18.35;;;;;;;1.48;100.00;101085.44;5032045;28;20034;-87
2022/11/19 09:20:12;;;;;;;32.80;15.67;;;;;;;1.41;100.00;101095.94;5030768;28;20049;-89
2022/11/19 09:22:38;;;;;;;43.20;19.20;;;;;;;1.41;100.00;101101.22;5023415;28;20053;-89
2022/11/19 09:25:03;;;;;;;40.30;19.33;;;;;;;1.44;100.00;101102.69;5027601;28;20109;-88
2022/11/19 09:27:29;;;;;;;38.60;18.63;;;;;;;1.51;100.00;101108.81;5017992;28;20031;-91
2022/11/19 09:29:54;;;;;;;35.47;16.73;;;;;;;1.49;100.00;101110.84;5017444;28;20269;-90
2022/11/19 09:32:22;;;;;;;36.47;17.73;;;;;;;1.48;100.00;101114.50;5028418;28;20029;-96
2022/11/19 09:34:48;;;;;;;37.03;17.02;;;;;;;1.42;100.00;101117.91;5035747;28;20021;-95
2022/11/19 09:37:13;;;;;;;39.27;18.50;;;;;;;1.42;100.00;101117.91;5029115;28;20046;-95
2022/11/19 09:39:38;;;;;;;38.40;17.53;;;;;;;1.47;100.00;101118.97;5033712;28;20029;-96
2022/11/19 09:42:15;;;;;;;32.67;15.77;;;;;;;1.49;100.00;101126.69;5025376;28;20097;-96
2022/11/19 09:44:47;;;;;;;36.80;17.93;;;;;;;1.48;100.00;101131.16;5056231;23;20693;-93
2022/11/19 09:47:21;;;;;;;32.40;15.23;;;;;;;1.29;100.00;101137.06;5035154;28;20022;-92
2022/11/19 09:50:29;;;;;;;31.40;14.60;;;;;;;1.31;100.00;101145.63;5030131;28;20062;-93
2022/11/19 09:55:35;;;;;;;38.55;16.80;;;;;;;1.40;100.00;101147.13;3344550;26;20110;-87
2022/11/19 09:58:06;;;;;;;39.42;17.38;;;;;;;1.39;100.00;101148.13;5017756;28;20026;-90
2022/11/19 10:00:32;;;;;;;137.73;48.53;;;;;;;1.33;100.00;101155.00;5021825;28;20116;-90
2022/11/19 10:03:01;;;;;;;36.90;15.80;;;;;;;1.27;100.00;101163.69;5022377;28;20022;-91
2022/11/19 10:05:33;;;;;;;41.67;19.00;;;;;;;1.29;100.00;101151.09;5022992;28;20088;-93
2022/11/19 10:08:16;;;;;;;38.72;17.08;;;;;;;1.28;100.00;101157.38;5021624;28;20034;-91
2022/11/19 10:10:57;;;;;;;39.92;18.08;;;;;;;1.20;100.00;101152.22;5022854;28;20017;-92
2022/11/19 10:13:44;;;;;;;38.83;17.02;;;;;;;1.24;100.00;101164.06;5039789;28;20376;-92
2022/11/19 10:16:48;;;;;;;33.55;14.77;;;;;;;1.30;100.00;101165.13;5020876;28;20044;-91
2022/11/19 10:19:38;;;;;;;28.00;13.02;;;;;;;1.31;100.00;101158.84;4953091;29;20035;-93
2022/11/19 10:22:32;;;;;;;34.80;15.20;;;;;;;1.25;100.00;101154.28;4953713;29;21115;-91
2022/11/19 10:25:02;;;;;;;32.60;15.57;;;;;;;1.30;100.00;101165.91;5003993;28;20061;-92
2022/11/19 10:27:39;;;;;;;30.55;14.85;;;;;;;1.32;100.00;101166.56;5021098;28;20026;-96
2022/11/19 10:30:15;;;;;;;34.88;15.82;;;;;;;1.25;100.00;101178.06;5031168;28;20034;-96
2022/11/19 10:32:58;;;;;;;32.92;15.60;;;;;;;1.19;100.00;101177.78;5032492;28;20005;-95
2022/11/19 10:35:32;;;;;;;29.95;15.05;;;;;;;1.27;100.00;101184.81;5030044;28;20025;-96
2022/11/19 10:38:03;;;;;;;34.08;15.55;;;;;;;1.20;100.00;101181.25;5014278;28;20038;-96
2022/11/19 10:40:43;;;;;;;33.93;15.73;;;;;;;1.14;100.00;101171.44;5023702;28;20060;-96
2022/11/19 10:43:27;;;;;;;33.43;16.23;;;;;;;1.36;100.00;101185.50;5008117;28;20270;-96
2022/11/19 10:45:55;;;;;;;32.78;15.32;;;;;;;1.41;100.00;101179.66;5031627;28;20034;-96
2022/11/19 10:48:23;;;;;;;35.95;14.75;;;;;;;1.33;100.00;101160.28;5030587;28;20034;-96
2022/11/19 10:50:49;;;;;;;31.63;14.95;;;;;;;1.38;100.00;101161.53;5024018;28;20044;-96
2022/11/19 10:55:58;;;;;;;33.63;16.23;;;;;;;1.51;100.00;101174.88;4908033;26;20407;-96
2022/11/19 10:58:28;;;;;;;35.22;15.75;;;;;;;1.51;100.00;101172.22;4986753;28;20027;-96
2022/11/19 11:06:10;;;;;;;30.58;13.50;;;;;;;1.16;100.00;101162.34;5022150;23;20043;-95
2022/11/19 11:08:51;;;;;;;33.95;15.38;;;;;;;1.36;100.00;101174.94;5005512;28;20030;-94
2022/11/19 11:14:50;;;;;;;30.48;14.93;;;;;;;1.46;100.00;101177.28;5017456;28;20088;-92
2022/11/19 11:17:26;;;;;;;27.42;13.02;;;;;;;1.46;100.00;101172.00;5019735;28;20097;-92
2022/11/19 11:20:17;;;;;;;27.38;12.88;;;;;;;1.28;100.00;101165.28;5020703;28;20405;-93
2022/11/19 11:22:48;;;;;;;26.00;12.83;;;;;;;1.32;100.00;101182.41;5014113;28;20034;-95
2022/11/19 11:25:26;;;;;;;28.27;13.87;;;;;;;1.30;100.00;101176.47;5021131;28;20351;-94
2022/11/19 11:28:10;;;;;;;28.38;13.68;;;;;;;1.41;100.00;101177.00;5016193;28;20592;-93
2022/11/19 11:30:35;;;;;;;26.30;12.23;;;;;;;1.41;100.00;101182.28;5007275;28;20413;-93
2022/11/19 11:33:23;;;;;;;26.83;13.00;;;;;;;1.36;100.00;101174.94;5017003;28;20090;-93
2022/11/19 11:35:49;;;;;;;26.52;12.32;;;;;;;1.33;100.00;101165.56;5017003;28;20030;-93
2022/11/19 11:38:17;;;;;;;25.70;12.02;;;;;;;1.42;100.00;101168.88;5013667;28;20044;-92
2022/11/19 11:41:07;;;;;;;24.55;12.73;;;;;;;1.51;100.00;101166.94;5001024;28;20050;-94
2022/11/19 11:43:36;;;;;;;26.58;12.88;;;;;;;1.62;100.00;101166.44;5007690;28;20417;-93
2022/11/19 11:46:05;;;;;;;18.30;9.38;;;;;;;1.69;100.00;101169.16;5012866;28;20094;-94
2022/11/19 11:48:41;;;;;;;23.55;11.77;;;;;;;1.60;100.00;101168.47;5001903;28;20559;-93
2022/11/19 11:51:40;;;;;;;19.70;9.90;;;;;;;1.68;100.00;101164.88;5012653;28;20591;-94
2022/11/19 11:54:19;;;;;;;30.67;12.27;;;;;;;1.46;100.00;101159.59;5023959;28;20025;-93
2022/11/19 11:56:45;;;;;;;22.15;11.60;;;;;;;1.51;100.00;101164.28;5012832;28;20504;-93
2022/11/19 11:59:26;;;;;;;17.33;10.50;;;;;;;1.41;100.00;101155.88;5020819;28;20034;-92
2022/11/19 12:02:04;;;;;;;25.67;11.15;;;;;;;1.30;100.00;101150.06;5015159;28;20044;-91
2022/11/19 12:04:30;;;;;;;17.85;10.05;;;;;;;1.43;100.00;101162.59;5012611;28;20084;-91
2022/11/19 12:07:02;;;;;;;22.90;11.85;;;;;;;1.31;100.00;101157.00;5024692;28;20030;-90
2022/11/19 12:10:02;;;;;;;24.55;9.65;;;;;;;1.40;100.00;101156.88;5016879;28;20069;-92
2022/11/19 12:12:39;;;;;;;20.33;10.60;;;;;;;1.33;100.00;101162.91;4996743;28;20022;-93
2022/11/19 12:15:07;;;;;;;20.10;11.23;;;;;;;1.39;100.00;101158.69;5015849;28;20026;-93
2022/11/19 12:18:13;;;;;;;19.92;10.65;;;;;;;1.45;100.00;101163.22;5014125;28;20045;-92
2022/11/19 12:26:51;;;;;;;22.55;12.65;;;;;;;1.41;100.00;101148.75;5024144;23;20056;-91
2022/11/19 12:29:19;;;;;;;21.63;10.33;;;;;;;1.45;100.00;101180.91;5023277;28;20054;-91
2022/11/19 12:32:11;;;;;;;21.03;10.47;;;;;;;1.33;100.00;101176.13;5025647;28;20296;-93
2022/11/19 12:34:42;;;;;;;21.10;10.68;;;;;;;1.29;100.00;101172.22;5030649;28;20037;-93
2022/11/19 12:37:18;;;;;;;21.80;9.88;;;;;;;1.29;100.00;101174.84;5018682;28;20030;-93
2022/11/19 12:39:54;;;;;;;18.85;10.52;;;;;;;1.30;100.00;101175.69;5008425;28;20060;-92
2022/11/19 12:42:48;;;;;;;19.45;10.50;;;;;;;1.41;100.00;101179.66;5014718;28;20359;-92
2022/11/19 12:45:24;;;;;;;21.63;11.00;;;;;;;1.36;100.00;101180.22;5029315;28;20045;-94
2022/11/19 12:48:22;;;;;;;18.13;10.90;;;;;;;1.43;100.00;101185.56;5023129;28;20030;-96
2022/11/19 12:51:02;;;;;;;17.17;9.77;;;;;;;1.56;100.00;101164.56;5019484;28;20551;-94
2022/11/19 12:53:37;;;;;;;19.97;10.47;;;;;;;1.63;100.00;101185.75;5180178;23;20058;-95
2022/11/19 12:56:05;;;;;;;19.60;11.05;;;;;;;1.77;100.00;101176.94;5020002;28;20030;-95
2022/11/19 12:59:02;;;;;;;16.88;9.07;;;;;;;1.82;100.00;101173.72;5026690;28;20045;-94
2022/11/19 13:01:34;;;;;;;17.67;9.98;;;;;;;1.91;100.00;101172.56;5034826;28;20077;-94
2022/11/19 13:04:10;;;;;;;18.42;9.80;;;;;;;2.13;100.00;101167.25;5014180;28;20037;-94
2022/11/19 13:07:01;;;;;;;16.08;9.18;;;;;;;2.35;100.00;101175.13;5016003;28;20030;-96
2022/11/19 13:09:35;;;;;;;22.52;10.25;;;;;;;2.37;100.00;101176.53;5374925;23;20125;-93
2022/11/19 13:12:07;;;;;;;15.77;8.77;;;;;;;2.36;100.00;101161.69;5023533;28;20457;-94
2022/11/19 13:15:03;;;;;;;19.10;10.70;;;;;;;2.50;100.00;101180.28;5028032;28;20320;-94
2022/11/19 13:17:37;;;;;;;20.77;9.88;;;;;;;2.62;100.00;101175.25;5017973;28;20033;-93
2022/11/19 13:20:40;;;;;;;18.42;9.75;;;;;;;2.68;100.00;101179.75;5020670;28;20049;-93
2022/11/19 13:23:06;;;;;;;22.15;10.13;;;;;;;2.67;100.00;101170.19;5017514;28;20046;-90
2022/11/19 13:25:40;;;;;;;16.77;9.82;;;;;;;2.77;100.00;101175.13;5015080;28;20042;-93
2022/11/19 13:28:20;;;;;;;18.77;10.15;;;;;;;2.72;100.00;101175.72;5002263;28;20038;-93
2022/11/19 13:30:49;;;;;;;18.42;9.85;;;;;;;2.68;99.73;101174.47;5010818;28;20068;-94
2022/11/19 13:33:24;;;;;;;20.58;10.93;;;;;;;2.60;100.00;101175.47;5013049;28;20084;-93
2022/11/19 13:36:13;;;;;;;15.60;7.90;;;;;;;2.73;100.00;101180.00;5024510;28;20030;-92
2022/11/19 13:38:55;;;;;;;17.87;10.43;;;;;;;2.63;100.00;101179.53;5014035;28;20304;-93
2022/11/19 13:44:37;;;;;;;20.90;10.20;;;;;;;2.58;100.00;101173.00;5016286;28;20030;-94
2022/11/19 13:47:29;;;;;;;18.00;10.05;;;;;;;2.65;100.00;101174.84;5015744;28;20080;-93
2022/11/19 13:50:18;;;;;;;18.65;10.40;;;;;;;2.68;100.00;101169.97;5023463;28;20030;-93
2022/11/19 13:53:05;;;;;;;16.98;9.60;;;;;;;2.70;100.00;101175.91;5176922;23;20058;-94
2022/11/19 13:55:39;;;;;;;16.85;10.65;;;;;;;2.62;100.00;101173.44;5019515;28;20034;-93
2022/11/19 13:58:09;;;;;;;16.13;8.97;;;;;;;2.60;100.00;101178.09;5023731;28;20045;-94
2022/11/19 14:00:36;;;;;;;18.07;10.23;;;;;;;2.59;100.00;101176.47;5038236;28;20267;-93
2022/11/19 14:03:37;;;;;;;17.20;9.95;;;;;;;2.58;100.00;101173.00;5026276;28;20050;-94
2022/11/19 14:06:33;;;;;;;15.82;9.75;;;;;;;2.55;100.00;101177.88;5277463;23;20046;-93
2022/11/19 14:09:11;;;;;;;15.43;9.50;;;;;;;2.56;99.78;101185.59;5016393;28;20030;-95
2022/11/19 14:26:40;;;;;;;15.35;9.35;;;;;;;2.31;100.00;101185.25;4999996;28;20061;-95
2022/11/19 14:29:17;;;;;;;16.38;8.70;;;;;;;2.33;100.00;101187.72;5013974;28;20056;-95
2022/11/19 14:32:01;;;;;;;14.95;9.13;;;;;;;2.36;100.00;101189.97;5016441;28;20033;-94
2022/11/19 14:34:30;;;;;;;14.63;8.63;;;;;;;2.38;100.00;101191.41;5016773;28;20050;-93
2022/11/19 14:36:58;;;;;;;15.98;9.65;;;;;;;2.30;100.00;101174.88;5016862;28;20025;-96
2022/11/19 14:39:30;;;;;;;15.77;8.80;;;;;;;2.31;100.00;101181.81;5015047;28;20049;-95
2022/11/19 14:42:15;;;;;;;16.27;9.67;;;;;;;2.33;100.00;101183.22;5030868;28;20117;-94
2022/11/19 14:44:42;;;;;;;15.53;9.37;;;;;;;2.24;100.00;101169.34;5035459;28;20300;-96
2022/11/19 14:47:23;;;;;;;13.57;8.75;;;;;;;2.26;100.00;101179.75;5025136;28;20093;-94
2022/11/19 14:49:53;;;;;;;11.20;7.05;;;;;;;2.26;100.00;101179.75;5019262;28;20065;-94
2022/11/19 14:52:26;;;;;;;14.90;8.63;;;;;;;2.24;100.00;101179.13;5015078;28;20014;-95
2022/11/19 14:54:55;;;;;;;15.77;8.60;;;;;;;2.14;99.97;101186.56;5015833;28;20030;-94
2022/11/19 14:57:40;;;;;;;15.18;8.90;;;;;;;2.16;99.85;101190.66;5015450;28;20041;-94
2022/11/19 15:00:27;;;;;;;19.23;9.10;;;;;;;2.11;100.00;101193.06;4995777;28;20050;-94
2022/11/19 15:02:54;;;;;;;17.27;8.77;;;;;;;2.04;100.00;101197.47;4999044;28;20039;-94
2022/11/19 15:05:26;;;;;;;15.57;9.20;;;;;;;2.05;100.00;101192.00;5014539;28;20336;-96
2022/11/19 15:08:15;;;;;;;17.48;9.32;;;;;;;2.07;100.00;101187.34;5015176;28;20034;-93
2022/11/19 15:11:03;;;;;;;14.65;8.80;;;;;;;2.07;100.00;101182.06;5004367;28;20465;-95
2022/11/19 15:13:30;;;;;;;13.82;8.25;;;;;;;2.06;100.00;101190.16;5015367;28;20085;-93
2022/11/19 15:16:07;;;;;;;15.45;8.65;;;;;;;2.02;100.00;101188.91;5015064;28;20049;-95
2022/11/19 15:18:43;;;;;;;18.38;9.00;;;;;;;2.04;100.00;101197.47;5015691;28;20041;-93
2022/11/19 15:21:30;;;;;;;13.77;8.13;;;;;;;2.05;100.00;101199.94;5014933;28;20690;-94
2022/11/19 15:24:28;;;;;;;14.00;8.27;;;;;;;1.96;100.00;101201.91;5014199;28;20802;-94
2022/11/19 15:27:12;;;;;;;15.23;8.85;;;;;;;1.97;100.00;101202.69;5071938;23;20050;-93
2022/11/19 15:29:57;;;;;;;18.23;8.70;;;;;;;1.94;100.00;101203.06;4994116;28;20093;-95
2022/11/19 15:32:50;;;;;;;15.35;8.18;;;;;;;1.91;100.00;101206.13;4994504;28;20026;-93
2022/11/19 15:35:21;;;;;;;14.23;8.02;;;;;;;1.89;100.00;101203.66;4995230;28;20030;-92
2022/11/19 15:37:48;;;;;;;14.45;8.30;;;;;;;1.81;100.00;101211.75;4993892;28;20073;-94
2022/11/19 15:40:24;;;;;;;16.13;9.10;;;;;;;1.80;100.00;101207.47;5009717;28;20522;-93
2022/11/19 15:43:18;;;;;;;16.65;8.63;;;;;;;1.79;100.00;101211.09;4995160;28;20037;-94
2022/11/19 15:45:50;;;;;;;16.27;8.50;;;;;;;1.69;100.00;101213.22;4994996;28;20113;-94
2022/11/19 15:48:24;;;;;;;14.60;8.75;;;;;;;1.69;98.93;101213.22;4998361;28;20022;-95
2022/11/19 15:50:50;;;;;;;13.75;7.57;;;;;;;1.64;100.00;101209.31;5010165;28;20030;-95
2022/11/19 15:53:21;;;;;;;12.90;7.85;;;;;;;1.62;100.00;101211.38;5005746;28;20076;-94
2022/11/19 15:56:02;;;;;;;14.15;8.07;;;;;;;1.71;97.79;101212.06;4996861;28;20569;-94
2022/11/19 15:58:41;;;;;;;14.18;8.63;;;;;;;1.62;99.90;101210.53;4996461;28;20027;-94
2022/11/19 16:01:08;;;;;;;14.63;7.93;;;;;;;1.56;100.00;101209.47;4994023;28;20030;-94
2022/11/19 16:03:38;;;;;;;15.40;8.63;;;;;;;1.54;100.00;101206.19;4994880;28;20777;-95
2022/11/19 16:06:14;;;;;;;12.77;7.25;;;;;;;1.56;100.00;101204.19;4993061;28;20445;-95
2022/11/19 16:08:40;;;;;;;12.75;7.90;;;;;;;1.55;100.00;101205.19;4995646;28;20034;-94
2022/11/19 16:19:21;;;;;;;13.95;8.60;;;;;;;1.53;99.32;101209.84;4995778;28;20053;-93
2022/11/19 16:21:52;;;;;;;13.57;8.03;;;;;;;1.52;100.00;101221.41;4989874;28;20431;-94
2022/11/19 16:27:09;;;;;;;13.40;7.90;;;;;;;1.56;97.97;101212.09;4975837;28;20394;-94
2022/11/19 16:29:38;;;;;;;14.97;8.70;;;;;;;1.50;100.00;101215.50;4974733;28;20121;-95
2022/11/19 16:32:04;;;;;;;13.40;7.87;;;;;;;1.54;100.00;101214.13;4981649;28;20304;-94
2022/11/19 16:34:34;;;;;;;15.40;8.30;;;;;;;1.55;100.00;101212.31;4994028;28;20027;-93
2022/11/19 16:37:00;;;;;;;15.45;8.30;;;;;;;1.53;100.00;101209.84;4973417;28;20027;-94
2022/11/19 16:39:30;;;;;;;14.60;8.75;;;;;;;1.54;100.00;101213.31;4973695;28;20109;-94
2022/11/19 16:44:32;;;;;;;15.77;8.70;;;;;;;1.49;100.00;101212.03;1470299;26;20314;-93
2022/11/19 16:47:04;;;;;;;15.63;8.57;;;;;;;1.58;99.13;101210.09;4955703;28;20062;-93
2022/11/19 16:49:38;;;;;;;14.65;8.30;;;;;;;1.52;99.58;101200.28;4956069;28;20070;-92
2022/11/19 16:52:06;;;;;;;15.48;8.80;;;;;;;1.56;98.86;101198.91;4957069;28;20027;-94
2022/11/19 16:54:50;;;;;;;14.05;8.40;;;;;;;1.56;100.00;101211.28;4955822;29;20027;-93
2022/11/19 16:57:19;;;;;;;15.05;8.70;;;;;;;1.62;98.14;101208.72;4936135;29;20050;-94
2022/11/19 17:00:00;;;;;;;12.18;7.88;;;;;;;1.58;98.84;101210.09;4935921;29;20045;-95
2022/11/19 17:02:34;;;;;;;14.20;7.83;;;;;;;1.56;97.63;101211.28;4944154;29;20027;-94
2022/11/19 17:05:08;;;;;;;12.63;7.87;;;;;;;1.56;96.80;101206.81;4954610;28;20307;-93
2022/11/19 17:07:34;;;;;;;12.52;7.55;;;;;;;1.37;97.54;101187.13;5011035;23;20053;-94
2022/11/19 17:10:15;;;;;;;14.25;8.40;;;;;;;1.56;97.52;101216.56;5017463;28;20036;-95
2022/11/19 17:13:03;;;;;;;;;;;;;;;;;;;;;
2022/11/19 17:16:02;;;;;;;;;;;;;;;;;;;;;
2022/11/19 17:25:12;;;;;;;13.73;7.77;;;;;;;1.36;95.49;101210.06;4923435;29;20393;-94
2022/11/19 17:28:45;;;;;;;;;;;;;;;;;;;;;
2022/11/19 17:38:07;;;;;;;13.18;7.72;;;;;;;1.49;97.37;101238.47;4921181;29;20585;-93
2022/11/19 17:44:38;;;;;;;14.45;7.57;;;;;;;1.51;96.29;101243.53;4932618;28;20051;-94
2022/11/19 17:47:12;;;;;;;10.80;6.67;;;;;;;1.46;96.21;101254.66;4946109;29;20051;-93
2022/11/19 17:49:41;;;;;;;11.48;7.20;;;;;;;1.43;95.43;101248.94;4941982;29;20115;-93
2022/11/19 17:52:16;;;;;;;;;;;;;;;;;;;;;
2022/11/19 17:58:17;;;;;;;12.98;7.07;;;;;;;1.44;94.32;101230.25;4945292;29;20035;-93
2022/11/19 18:00:42;;;;;;;13.35;7.03;;;;;;;1.35;95.57;101231.41;4987342;23;20042;-92
2022/11/19 18:03:11;;;;;;;12.10;7.00;;;;;;;1.42;94.66;101245.47;5024621;28;20025;-93
2022/11/19 18:05:38;;;;;;;10.48;6.32;;;;;;;1.47;92.91;101242.28;5023315;28;20040;-93
2022/11/19 18:08:04;;;;;;;11.48;6.85;;;;;;;1.41;94.66;101243.84;5023791;28;20041;-93
2022/11/19 18:10:29;;;;;;;12.00;6.90;;;;;;;1.43;94.89;101252.41;5023910;28;20063;-93
2022/11/19 18:12:54;;;;;;;12.03;7.30;;;;;;;1.44;94.35;101245.31;5024565;28;20030;-93
2022/11/19 18:15:20;;;;;;;13.50;7.20;;;;;;;1.41;94.73;101240.41;5025622;28;20030;-93
2022/11/19 18:17:45;;;;;;;10.33;6.70;;;;;;;1.43;94.24;101243.66;5034605;28;20033;-93
2022/11/19 18:20:12;;;;;;;14.40;6.82;;;;;;;1.42;93.64;101242.03;5035758;28;20036;-92
2022/11/19 18:22:38;;;;;;;11.30;6.57;;;;;;;1.37;91.59;101239.94;5023486;28;20084;-92